Time;durP1;ratioP1;P1;durP2;ratioP2;P2;SDS_P1;SDS_P2;PMS_P1;PMS_P2;Temp;Humidity;BMP_temperature;BMP_pressure;BME280_temperature;BME280_humidity;BME280_pressure;Samples;Min_cycle;Max_cycle;Signal;HPM_P1;HPM_P2
2023/01/19 00:00:43;;;;;;;;;21.75;19.75;;;;;;;;5002113;28;46257;-78
2023/01/19 00:03:14;;;;;;;;;22.25;19.00;;;;;;;;5012324;28;45292;-79
2023/01/19 00:05:40;;;;;;;;;26.00;21.00;;;;;;;;5005836;28;45349;-78
2023/01/19 00:08:13;;;;;;;;;18.25;17.75;;;;;;;;5009956;28;47178;-79
2023/01/19 00:10:40;;;;;;;;;17.25;11.75;;;;;;;;5011586;28;45526;-79
2023/01/19 00:13:05;;;;;;;;;22.25;21.00;;;;;;;;5020470;28;45798;-79
2023/01/19 00:15:30;;;;;;;;;21.00;17.25;;;;;;;;5011932;28;45288;-78
2023/01/19 00:17:56;;;;;;;;;17.00;16.75;;;;;;;;4990172;28;45338;-78
2023/01/19 00:20:21;;;;;;;;;24.00;17.75;;;;;;;;5012703;28;45241;-79
2023/01/19 00:22:49;;;;;;;;;20.75;17.50;;;;;;;;5018585;28;45355;-78
2023/01/19 00:25:14;;;;;;;;;19.50;17.50;;;;;;;;5018624;28;45367;-78
2023/01/19 00:27:40;;;;;;;;;17.50;15.25;;;;;;;;5013398;28;45361;-79
2023/01/19 00:30:05;;;;;;;;;21.00;15.00;;;;;;;;5013795;28;46607;-78
2023/01/19 00:32:30;;;;;;;;;21.25;19.00;;;;;;;;5024646;28;45228;-78
2023/01/19 00:34:56;;;;;;;;;13.75;13.75;;;;;;;;5012415;28;45415;-79
2023/01/19 00:37:21;;;;;;;;;15.75;15.50;;;;;;;;5016838;28;44804;-79
2023/01/19 00:39:46;;;;;;;;;24.00;15.00;;;;;;;;5009961;28;45700;-78
2023/01/19 00:44:56;;;;;;;;;26.25;19.75;;;;;;;;5020333;28;45513;-79
2023/01/19 00:47:21;;;;;;;;;24.00;16.00;;;;;;;;5020942;28;45458;-79
2023/01/19 00:49:46;;;;;;;;;17.75;12.75;;;;;;;;5023973;28;45982;-79
2023/01/19 00:52:12;;;;;;;;;15.25;14.00;;;;;;;;5016806;28;45202;-79
2023/01/19 00:54:37;;;;;;;;;12.25;12.25;;;;;;;;5015169;28;45495;-79
2023/01/19 00:57:02;;;;;;;;;24.25;20.50;;;;;;;;5013377;28;45310;-79
2023/01/19 00:59:27;;;;;;;;;25.00;20.00;;;;;;;;5009076;28;47442;-79
2023/01/19 01:01:53;;;;;;;;;17.00;16.25;;;;;;;;5001698;28;45638;-79
2023/01/19 01:04:18;;;;;;;;;15.25;13.75;;;;;;;;5012852;28;45354;-80
2023/01/19 01:06:43;;;;;;;;;20.25;15.50;;;;;;;;5001139;28;45199;-79
2023/01/19 01:09:11;;;;;;;;;15.75;15.50;;;;;;;;5004493;28;45325;-79
2023/01/19 01:11:40;;;;;;;;;21.25;18.00;;;;;;;;5007745;28;45458;-78
2023/01/19 01:14:05;;;;;;;;;18.25;15.50;;;;;;;;5016384;28;45413;-79
2023/01/19 01:16:30;;;;;;;;;20.50;16.25;;;;;;;;5007962;28;45173;-78
2023/01/19 01:18:56;;;;;;;;;17.75;11.75;;;;;;;;5014192;28;45498;-78
2023/01/19 01:21:22;;;;;;;;;19.75;13.75;;;;;;;;5010051;28;45435;-78
2023/01/19 01:23:47;;;;;;;;;19.75;15.00;;;;;;;;5015383;28;45178;-78
2023/01/19 01:26:13;;;;;;;;;18.25;15.50;;;;;;;;5006627;28;45166;-78
2023/01/19 01:28:38;;;;;;;;;14.00;14.00;;;;;;;;5018030;28;45348;-79
2023/01/19 01:31:03;;;;;;;;;11.25;11.25;;;;;;;;5010596;28;45387;-79
2023/01/19 01:33:28;;;;;;;;;19.75;13.50;;;;;;;;5016085;28;45652;-79
2023/01/19 01:35:54;;;;;;;;;18.00;14.00;;;;;;;;5024558;28;45294;-79
2023/01/19 01:38:19;;;;;;;;;17.00;16.50;;;;;;;;5019057;28;45576;-79
2023/01/19 01:40:44;;;;;;;;;20.75;17.50;;;;;;;;5006096;28;45211;-79
2023/01/19 01:43:11;;;;;;;;;18.25;16.25;;;;;;;;5019672;28;45208;-78
2023/01/19 01:45:40;;;;;;;;;19.75;16.75;;;;;;;;5003227;28;45458;-78
2023/01/19 01:48:14;;;;;;;;;22.00;17.75;;;;;;;;5017950;28;46254;-78
2023/01/19 01:51:22;;;;;;;;;18.50;16.50;;;;;;;;5004176;28;45419;-78
2023/01/19 01:53:29;;;;;;;;;16.75;13.50;;;;;;;;5011758;28;45389;-78
2023/01/19 01:55:54;;;;;;;;;20.50;13.25;;;;;;;;5007072;28;45257;-78
2023/01/19 01:58:20;;;;;;;;;18.25;14.00;;;;;;;;5014954;28;45594;-78
2023/01/19 02:03:50;;;;;;;;;21.25;16.00;;;;;;;;5001484;28;45439;-77
2023/01/19 02:06:15;;;;;;;;;20.75;17.25;;;;;;;;4988737;28;45373;-79
2023/01/19 02:14:11;;;;;;;;;12.75;10.00;;;;;;;;4987965;28;45496;-78
2023/01/19 02:16:37;;;;;;;;;17.75;17.75;;;;;;;;5023237;28;45261;-78
2023/01/19 02:19:03;;;;;;;;;15.50;13.50;;;;;;;;5017674;28;45338;-78
2023/01/19 02:21:37;;;;;;;;;16.75;13.25;;;;;;;;5010452;28;45361;-78
2023/01/19 02:24:02;;;;;;;;;20.75;17.50;;;;;;;;5016018;28;45477;-79
2023/01/19 02:26:33;;;;;;;;;23.25;17.25;;;;;;;;5010353;28;45360;-79
2023/01/19 02:29:18;;;;;;;;;20.50;17.50;;;;;;;;5015991;28;47580;-80
2023/01/19 02:31:44;;;;;;;;;22.50;17.50;;;;;;;;5011557;28;45221;-79
2023/01/19 02:34:11;;;;;;;;;21.00;17.00;;;;;;;;5019338;28;45410;-78
2023/01/19 02:36:56;;;;;;;;;20.25;17.00;;;;;;;;5017112;28;45332;-79
2023/01/19 02:39:28;;;;;;;;;31.00;20.25;;;;;;;;5017872;28;45358;-78
2023/01/19 02:42:00;;;;;;;;;21.75;20.50;;;;;;;;5010977;28;45506;-79
2023/01/19 02:44:26;;;;;;;;;22.50;20.00;;;;;;;;5018307;28;45387;-78
2023/01/19 02:46:55;;;;;;;;;19.50;14.00;;;;;;;;5019055;28;45324;-79
2023/01/19 02:49:20;;;;;;;;;19.00;15.25;;;;;;;;5017996;28;46286;-79
2023/01/19 02:51:47;;;;;;;;;27.00;19.00;;;;;;;;5011578;28;45280;-79
2023/01/19 02:54:21;;;;;;;;;19.25;14.75;;;;;;;;5019040;28;45326;-79
2023/01/19 02:56:58;;;;;;;;;15.00;14.00;;;;;;;;5012646;28;45312;-79
2023/01/19 02:59:36;;;;;;;;;25.50;16.00;;;;;;;;5020774;28;46268;-78
2023/01/19 03:02:16;;;;;;;;;20.50;17.00;;;;;;;;5010059;28;45642;-78
2023/01/19 03:04:55;;;;;;;;;30.50;20.75;;;;;;;;5013471;28;45257;-79
2023/01/19 03:07:27;;;;;;;;;12.25;9.50;;;;;;;;5009141;28;45194;-78
2023/01/19 03:09:59;;;;;;;;;21.75;17.25;;;;;;;;5015657;28;46347;-79
2023/01/19 03:12:38;;;;;;;;;27.00;17.00;;;;;;;;5011838;28;45371;-78
2023/01/19 03:15:08;;;;;;;;;21.75;16.50;;;;;;;;5012824;28;45311;-79
2023/01/19 03:17:34;;;;;;;;;25.25;18.00;;;;;;;;5011397;28;45303;-78
2023/01/19 03:20:02;;;;;;;;;26.00;18.00;;;;;;;;5015286;28;47612;-79
2023/01/19 03:22:28;;;;;;;;;22.00;14.25;;;;;;;;5012376;28;45326;-79
2023/01/19 03:24:55;;;;;;;;;23.25;20.50;;;;;;;;5013923;28;45437;-79
2023/01/19 03:27:21;;;;;;;;;27.00;21.25;;;;;;;;5009981;28;45232;-78
2023/01/19 03:29:49;;;;;;;;;25.50;21.25;;;;;;;;5015401;28;46624;-77
2023/01/19 03:32:16;;;;;;;;;24.25;21.00;;;;;;;;5015846;28;45239;-77
2023/01/19 03:34:43;;;;;;;;;23.75;19.00;;;;;;;;5016331;28;45347;-78
2023/01/19 03:37:10;;;;;;;;;22.00;21.75;;;;;;;;5016558;28;45380;-78
2023/01/19 03:39:35;;;;;;;;;22.50;20.50;;;;;;;;5012635;28;45535;-77
2023/01/19 03:42:03;;;;;;;;;26.75;21.00;;;;;;;;5016521;28;45276;-77
2023/01/19 03:44:30;;;;;;;;;31.00;22.75;;;;;;;;5013342;28;45261;-77
2023/01/19 03:46:57;;;;;;;;;27.75;19.25;;;;;;;;5015115;28;45764;-78
2023/01/19 03:49:23;;;;;;;;;23.75;20.50;;;;;;;;5016763;28;45422;-77
2023/01/19 03:51:48;;;;;;;;;22.50;20.75;;;;;;;;5009889;28;45411;-79
2023/01/19 03:54:14;;;;;;;;;22.25;18.00;;;;;;;;5020435;28;45509;-79
2023/01/19 03:56:39;;;;;;;;;26.50;22.25;;;;;;;;5005857;28;45257;-80
2023/01/19 03:59:04;;;;;;;;;20.75;20.75;;;;;;;;5008058;28;45405;-79
2023/01/19 04:01:30;;;;;;;;;24.00;17.75;;;;;;;;5006899;28;45301;-78
2023/01/19 04:03:55;;;;;;;;;32.75;19.25;;;;;;;;5013755;28;45482;-79
2023/01/19 04:06:21;;;;;;;;;20.25;16.75;;;;;;;;5005922;28;45249;-78
2023/01/19 04:08:47;;;;;;;;;13.50;9.25;;;;;;;;5012912;28;46056;-79
2023/01/19 04:11:12;;;;;;;;;29.00;18.75;;;;;;;;5005525;28;45251;-78
2023/01/19 04:13:38;;;;;;;;;19.50;16.75;;;;;;;;5013685;28;45185;-79
2023/01/19 04:16:03;;;;;;;;;20.25;16.25;;;;;;;;5008329;28;45526;-79
2023/01/19 04:18:30;;;;;;;;;20.50;18.25;;;;;;;;5006517;28;47253;-78
2023/01/19 04:20:58;;;;;;;;;27.25;17.50;;;;;;;;5010963;28;45372;-78
2023/01/19 04:23:24;;;;;;;;;17.25;11.75;;;;;;;;5019664;28;45282;-78
2023/01/19 04:25:49;;;;;;;;;25.25;18.25;;;;;;;;5007213;28;45331;-79
2023/01/19 04:28:14;;;;;;;;;21.75;16.00;;;;;;;;5015899;28;45402;-79
2023/01/19 04:30:39;;;;;;;;;27.00;20.25;;;;;;;;5008002;28;45257;-79
2023/01/19 04:33:05;;;;;;;;;20.75;16.50;;;;;;;;5015442;28;45550;-79
2023/01/19 04:35:30;;;;;;;;;18.50;16.25;;;;;;;;5017554;28;46532;-79
2023/01/19 04:37:55;;;;;;;;;28.50;17.75;;;;;;;;5015039;28;45466;-79
2023/01/19 04:40:20;;;;;;;;;24.75;18.00;;;;;;;;5010790;28;45452;-79
2023/01/19 04:42:45;;;;;;;;;27.75;21.25;;;;;;;;5016004;28;45360;-79
2023/01/19 04:45:12;;;;;;;;;25.75;18.75;;;;;;;;5011771;28;46382;-76
2023/01/19 04:47:37;;;;;;;;;17.75;12.00;;;;;;;;5013377;28;47656;-82
2023/01/19 04:50:04;;;;;;;;;20.00;18.25;;;;;;;;5011570;28;45548;-80
2023/01/19 04:52:36;;;;;;;;;20.25;16.00;;;;;;;;5015097;28;45354;-79
2023/01/19 04:55:05;;;;;;;;;22.50;13.50;;;;;;;;5006650;28;45423;-78
2023/01/19 04:57:30;;;;;;;;;23.75;16.00;;;;;;;;5015476;28;46425;-77
2023/01/19 04:59:55;;;;;;;;;21.50;18.25;;;;;;;;5012002;28;45395;-80
2023/01/19 05:02:21;;;;;;;;;20.50;17.00;;;;;;;;5004025;28;45485;-77
2023/01/19 05:04:47;;;;;;;;;20.50;16.50;;;;;;;;5012818;28;45273;-80
2023/01/19 05:07:12;;;;;;;;;20.00;17.25;;;;;;;;5004506;28;45526;-79
2023/01/19 05:09:37;;;;;;;;;22.25;20.00;;;;;;;;5006805;28;45453;-81
2023/01/19 05:12:03;;;;;;;;;25.75;16.75;;;;;;;;5003140;28;45320;-81
2023/01/19 05:14:28;;;;;;;;;25.25;21.25;;;;;;;;5016813;28;45255;-80
2023/01/19 05:16:53;;;;;;;;;22.25;21.00;;;;;;;;5005430;28;46288;-81
2023/01/19 05:19:19;;;;;;;;;22.25;20.00;;;;;;;;5014447;28;45403;-79
2023/01/19 05:21:45;;;;;;;;;29.50;18.25;;;;;;;;5006662;28;45453;-78
2023/01/19 05:24:10;;;;;;;;;20.50;18.25;;;;;;;;5004205;28;45637;-79
2023/01/19 05:26:35;;;;;;;;;22.25;20.00;;;;;;;;5016619;28;45507;-78
2023/01/19 05:29:00;;;;;;;;;21.00;18.50;;;;;;;;5004536;28;45304;-79
2023/01/19 05:31:26;;;;;;;;;25.25;17.25;;;;;;;;5009392;28;45514;-78
2023/01/19 05:33:51;;;;;;;;;25.50;16.50;;;;;;;;5017229;28;45265;-78
2023/01/19 05:36:16;;;;;;;;;21.25;20.00;;;;;;;;5008919;28;45423;-78
2023/01/19 05:38:41;;;;;;;;;24.00;18.50;;;;;;;;5015755;28;45305;-78
2023/01/19 05:41:06;;;;;;;;;24.75;19.25;;;;;;;;5009599;28;45577;-77
2023/01/19 05:43:32;;;;;;;;;21.00;20.25;;;;;;;;5018614;28;45197;-76
2023/01/19 05:45:57;;;;;;;;;22.00;17.50;;;;;;;;5003218;28;47381;-75
2023/01/19 05:48:22;;;;;;;;;21.75;17.00;;;;;;;;5017622;28;46228;-77
2023/01/19 05:50:48;;;;;;;;;14.25;13.00;;;;;;;;5006379;28;45373;-78
2023/01/19 05:53:13;;;;;;;;;17.75;15.25;;;;;;;;5019510;28;44759;-76
2023/01/19 05:55:38;;;;;;;;;19.25;16.75;;;;;;;;5003953;28;46984;-75
2023/01/19 05:58:04;;;;;;;;;15.50;13.25;;;;;;;;5015527;28;45172;-77
2023/01/19 06:00:29;;;;;;;;;27.00;16.00;;;;;;;;5000627;28;45292;-77
2023/01/19 06:02:54;;;;;;;;;17.00;12.75;;;;;;;;5020197;28;45426;-77
2023/01/19 06:05:19;;;;;;;;;21.00;16.75;;;;;;;;5017578;28;45322;-76
2023/01/19 06:07:45;;;;;;;;;16.25;12.50;;;;;;;;5004588;28;45194;-77
2023/01/19 06:10:10;;;;;;;;;23.00;17.75;;;;;;;;5005670;28;45225;-78
2023/01/19 06:12:39;;;;;;;;;16.75;13.75;;;;;;;;5011293;28;45244;-78
2023/01/19 06:15:05;;;;;;;;;16.75;15.00;;;;;;;;4998456;28;46174;-79
2023/01/19 06:17:31;;;;;;;;;16.50;13.25;;;;;;;;5002795;28;45333;-76
2023/01/19 06:19:56;;;;;;;;;21.00;17.25;;;;;;;;5006402;28;45403;-76
2023/01/19 06:22:21;;;;;;;;;16.00;14.00;;;;;;;;5008312;28;45301;-76
2023/01/19 06:24:47;;;;;;;;;14.00;12.25;;;;;;;;5010928;28;46129;-78
2023/01/19 06:27:12;;;;;;;;;12.50;10.00;;;;;;;;5006413;28;46089;-78
2023/01/19 06:29:37;;;;;;;;;14.75;13.00;;;;;;;;5004114;28;45423;-77
2023/01/19 06:32:03;;;;;;;;;13.25;12.25;;;;;;;;5007673;28;45207;-77
2023/01/19 06:34:28;;;;;;;;;13.25;11.75;;;;;;;;5014748;28;46764;-77
2023/01/19 06:36:56;;;;;;;;;13.25;10.25;;;;;;;;5016472;28;45201;-77
2023/01/19 06:39:22;;;;;;;;;25.25;18.25;;;;;;;;5014578;28;45333;-76
2023/01/19 06:41:47;;;;;;;;;20.50;15.75;;;;;;;;5010918;28;46917;-77
2023/01/19 06:44:12;;;;;;;;;12.00;12.00;;;;;;;;5016377;28;45328;-76
2023/01/19 06:46:37;;;;;;;;;35.25;30.25;;;;;;;;5007340;28;45275;-76
2023/01/19 06:49:02;;;;;;;;;13.00;12.00;;;;;;;;5016282;28;45296;-76
2023/01/19 06:51:28;;;;;;;;;67.00;49.00;;;;;;;;5007668;28;45380;-76
2023/01/19 06:53:53;;;;;;;;;17.00;13.00;;;;;;;;5016179;28;45379;-77
2023/01/19 06:56:18;;;;;;;;;33.00;24.00;;;;;;;;5006906;28;45328;-76
2023/01/19 06:58:45;;;;;;;;;45.33;40.33;;;;;;;;5016586;28;45628;-77
2023/01/19 07:01:10;;;;;;;;;24.25;18.75;;;;;;;;5002050;28;45403;-75
2023/01/19 07:03:36;;;;;;;;;17.00;13.50;;;;;;;;5008346;28;47181;-76
2023/01/19 07:06:02;;;;;;;;;17.75;17.25;;;;;;;;5002711;28;45738;-77
2023/01/19 07:08:27;;;;;;;;;18.25;13.25;;;;;;;;5017467;28;45200;-76
2023/01/19 07:10:58;;;;;;;;;23.25;17.50;;;;;;;;5004396;28;45561;-77
2023/01/19 07:13:23;;;;;;;;;21.25;15.00;;;;;;;;5016506;28;47292;-75
2023/01/19 07:15:48;;;;;;;;;26.50;19.75;;;;;;;;5005058;28;45277;-76
2023/01/19 07:18:13;;;;;;;;;19.00;17.25;;;;;;;;5011376;28;45338;-78
2023/01/19 07:20:39;;;;;;;;;11.75;11.75;;;;;;;;5009620;28;45417;-77
2023/01/19 07:23:04;;;;;;;;;19.00;14.50;;;;;;;;5004641;28;45363;-75
2023/01/19 07:25:29;;;;;;;;;16.00;15.25;;;;;;;;5011892;28;45499;-76
2023/01/19 07:27:58;;;;;;;;;17.00;12.25;;;;;;;;5014200;28;45408;-77
2023/01/19 07:30:23;;;;;;;;;25.75;19.75;;;;;;;;5015051;28;45320;-77
2023/01/19 07:32:48;;;;;;;;;22.50;22.00;;;;;;;;5014812;28;45437;-76
2023/01/19 07:35:14;;;;;;;;;21.00;16.75;;;;;;;;5013367;28;45411;-77
2023/01/19 07:37:39;;;;;;;;;18.50;15.00;;;;;;;;5016132;28;45363;-76
2023/01/19 07:40:05;;;;;;;;;12.00;12.00;;;;;;;;5009157;28;46707;-77
2023/01/19 07:42:30;;;;;;;;;14.75;10.00;;;;;;;;5001300;28;45386;-76
2023/01/19 07:44:55;;;;;;;;;19.00;16.25;;;;;;;;5009921;28;45630;-77
2023/01/19 07:47:21;;;;;;;;;18.00;16.75;;;;;;;;5018061;28;45453;-77
2023/01/19 07:49:46;;;;;;;;;18.25;15.75;;;;;;;;5014189;28;46225;-76
2023/01/19 07:52:11;;;;;;;;;20.00;16.00;;;;;;;;5017811;28;47599;-77
2023/01/19 07:54:37;;;;;;;;;21.75;18.25;;;;;;;;5018129;28;45444;-75
2023/01/19 07:57:02;;;;;;;;;19.25;13.00;;;;;;;;5020194;28;45435;-76
2023/01/19 07:59:29;;;;;;;;;42.50;33.00;;;;;;;;5014420;28;45315;-77
2023/01/19 08:01:54;;;;;;;;;76.00;59.33;;;;;;;;5017214;28;48196;-77
2023/01/19 08:04:19;;;;;;;;;37.25;35.00;;;;;;;;5014904;28;45732;-76
2023/01/19 08:06:46;;;;;;;;;49.67;41.00;;;;;;;;5016468;28;45378;-77
2023/01/19 08:09:11;;;;;;;;;13.25;11.75;;;;;;;;5013583;28;45371;-77
2023/01/19 08:11:36;;;;;;;;;18.00;16.50;;;;;;;;5015905;28;45368;-77
2023/01/19 08:14:01;;;;;;;;;40.00;35.50;;;;;;;;5017882;28;45252;-77
2023/01/19 08:16:27;;;;;;;;;31.33;31.33;;;;;;;;5008051;28;45223;-76
2023/01/19 08:18:55;;;;;;;;;32.50;31.00;;;;;;;;5014635;28;45259;-77
2023/01/19 08:21:20;;;;;;;;;42.75;33.75;;;;;;;;5005857;28;46146;-76
2023/01/19 08:23:56;;;;;;;;;24.25;17.25;;;;;;;;5005754;28;45371;-76
2023/01/19 08:26:26;;;;;;;;;21.75;20.00;;;;;;;;5005937;28;45178;-76
2023/01/19 08:28:51;;;;;;;;;23.00;21.75;;;;;;;;5012470;28;45275;-78
2023/01/19 08:31:17;;;;;;;;;18.50;16.00;;;;;;;;5014445;28;46695;-77
2023/01/19 08:33:42;;;;;;;;;14.25;14.25;;;;;;;;5017937;28;46183;-76
2023/01/19 08:36:07;;;;;;;;;12.75;9.25;;;;;;;;5015558;28;45424;-77
2023/01/19 08:38:32;;;;;;;;;20.00;16.50;;;;;;;;5010716;28;45319;-77
2023/01/19 08:40:58;;;;;;;;;27.50;23.75;;;;;;;;5003875;28;46514;-78
2023/01/19 08:43:23;;;;;;;;;18.25;16.50;;;;;;;;5019214;28;45145;-76
2023/01/19 08:45:49;;;;;;;;;18.50;17.75;;;;;;;;5007392;28;45531;-78
2023/01/19 08:48:16;;;;;;;;;17.25;13.50;;;;;;;;5020124;28;45200;-77
2023/01/19 08:50:41;;;;;;;;;14.75;13.25;;;;;;;;5014410;28;45918;-78
2023/01/19 08:53:06;;;;;;;;;21.75;16.25;;;;;;;;5019857;28;45343;-77
2023/01/19 08:55:33;;;;;;;;;17.00;13.25;;;;;;;;5009056;28;45481;-77
2023/01/19 08:58:02;;;;;;;;;15.25;13.00;;;;;;;;5019882;28;45441;-76
2023/01/19 09:00:30;;;;;;;;;20.50;14.75;;;;;;;;5004903;28;47201;-76
2023/01/19 09:02:55;;;;;;;;;11.75;11.75;;;;;;;;5007823;28;45403;-76
2023/01/19 09:05:21;;;;;;;;;20.75;17.00;;;;;;;;5006155;28;45833;-77
2023/01/19 09:07:50;;;;;;;;;18.75;13.00;;;;;;;;5008795;28;44899;-77
2023/01/19 09:10:16;;;;;;;;;16.50;13.00;;;;;;;;5005263;28;46455;-76
2023/01/19 09:12:42;;;;;;;;;17.00;14.50;;;;;;;;5017929;28;45379;-76
2023/01/19 09:15:09;;;;;;;;;16.00;13.75;;;;;;;;5008521;28;45193;-76
2023/01/19 09:17:35;;;;;;;;;13.00;9.50;;;;;;;;5010474;28;45463;-76
2023/01/19 09:20:00;;;;;;;;;10.50;8.75;;;;;;;;5010650;28;45431;-77
2023/01/19 09:22:25;;;;;;;;;10.75;10.00;;;;;;;;5018140;28;45291;-76
2023/01/19 09:24:50;;;;;;;;;14.50;14.00;;;;;;;;5013027;28;45363;-75
2023/01/19 09:27:16;;;;;;;;;13.75;10.00;;;;;;;;5012549;28;45380;-76
2023/01/19 09:29:41;;;;;;;;;14.25;10.25;;;;;;;;5012899;28;45796;-76
2023/01/19 09:32:07;;;;;;;;;14.00;12.75;;;;;;;;5013992;28;45399;-76
2023/01/19 09:34:33;;;;;;;;;10.00;9.00;;;;;;;;5012386;28;45311;-76
2023/01/19 09:36:58;;;;;;;;;10.75;10.75;;;;;;;;5016975;28;45291;-76
2023/01/19 09:39:23;;;;;;;;;15.75;13.75;;;;;;;;5013888;28;45383;-76
2023/01/19 09:41:55;;;;;;;;;14.00;13.25;;;;;;;;5007147;28;45380;-77
2023/01/19 09:44:28;;;;;;;;;24.00;16.75;;;;;;;;5014640;28;45177;-75
2023/01/19 09:46:53;;;;;;;;;18.25;13.00;;;;;;;;5009219;28;45696;-76
2023/01/19 09:49:22;;;;;;;;;20.00;14.75;;;;;;;;5009818;28;47362;-74
2023/01/19 09:51:48;;;;;;;;;16.25;13.50;;;;;;;;5016790;28;45301;-75
2023/01/19 09:54:18;;;;;;;;;16.75;14.75;;;;;;;;5017131;28;45269;-75
2023/01/19 09:56:44;;;;;;;;;18.00;15.00;;;;;;;;5010080;28;45435;-76
2023/01/19 09:59:29;;;;;;;;;18.00;15.75;;;;;;;;5015532;28;45453;-74
2023/01/19 10:01:55;;;;;;;;;21.25;17.75;;;;;;;;5009057;28;46323;-76
2023/01/19 10:04:40;;;;;;;;;15.00;14.00;;;;;;;;5013784;28;44929;-76
2023/01/19 10:07:05;;;;;;;;;15.25;15.25;;;;;;;;5003392;28;45218;-76
2023/01/19 10:09:37;;;;;;;;;21.25;18.50;;;;;;;;5001550;28;45724;-76
2023/01/19 10:12:15;;;;;;;;;19.50;17.00;;;;;;;;5004985;28;45649;-76
2023/01/19 10:14:44;;;;;;;;;18.50;17.75;;;;;;;;5013084;28;45620;-75
2023/01/19 10:17:15;;;;;;;;;25.00;15.75;;;;;;;;5019077;28;45372;-76
2023/01/19 10:19:44;;;;;;;;;26.25;18.25;;;;;;;;5011101;28;45624;-75
2023/01/19 10:22:18;;;;;;;;;18.50;18.00;;;;;;;;5011656;28;45351;-76
2023/01/19 10:24:44;;;;;;;;;17.00;13.75;;;;;;;;5012592;28;45451;-75
2023/01/19 10:27:17;;;;;;;;;23.00;21.50;;;;;;;;5010616;28;45557;-76
2023/01/19 10:29:43;;;;;;;;;56.25;47.00;;;;;;;;5014987;28;45366;-76
2023/01/19 10:32:20;;;;;;;;;51.75;40.25;;;;;;;;5018798;28;45481;-75
2023/01/19 10:34:46;;;;;;;;;24.75;23.25;;;;;;;;5013105;28;45376;-75
2023/01/19 10:37:11;;;;;;;;;23.50;18.00;;;;;;;;5013967;28;45518;-75
2023/01/19 10:39:37;;;;;;;;;17.50;16.75;;;;;;;;5017589;28;45555;-75
2023/01/19 10:42:02;;;;;;;;;30.00;26.25;;;;;;;;5007284;28;45246;-74
2023/01/19 10:44:33;;;;;;;;;29.50;22.75;;;;;;;;5014346;28;45304;-75
2023/01/19 10:46:59;;;;;;;;;31.00;25.25;;;;;;;;5010015;28;46348;-75
2023/01/19 10:49:28;;;;;;;;;26.75;20.75;;;;;;;;5014572;28;45323;-74
2023/01/19 10:51:55;;;;;;;;;31.75;22.50;;;;;;;;5014731;28;45824;-74
2023/01/19 10:54:20;;;;;;;;;29.00;22.50;;;;;;;;5010884;28;45275;-74
2023/01/19 10:57:01;;;;;;;;;24.50;20.25;;;;;;;;5019129;28;46038;-73
2023/01/19 10:59:37;;;;;;;;;20.25;16.75;;;;;;;;5013658;28;45478;-75
2023/01/19 11:02:11;;;;;;;;;27.00;21.50;;;;;;;;5006003;28;45225;-76
2023/01/19 11:04:36;;;;;;;;;28.75;23.50;;;;;;;;5005532;28;45322;-76
2023/01/19 11:07:17;;;;;;;;;24.75;22.00;;;;;;;;5007718;28;45252;-73
2023/01/19 11:09:42;;;;;;;;;23.50;22.00;;;;;;;;5013773;28;45366;-76
2023/01/19 11:12:19;;;;;;;;;25.25;23.00;;;;;;;;5010962;28;45441;-74
2023/01/19 11:14:45;;;;;;;;;23.25;16.25;;;;;;;;5014304;28;45545;-75
2023/01/19 11:17:18;;;;;;;;;28.75;22.75;;;;;;;;5012141;28;44803;-75
2023/01/19 11:19:51;;;;;;;;;28.25;24.75;;;;;;;;5018321;28;46807;-75
2023/01/19 11:22:23;;;;;;;;;25.25;20.75;;;;;;;;5019378;28;45497;-75
2023/01/19 11:24:49;;;;;;;;;31.75;25.25;;;;;;;;5013866;28;45427;-75
2023/01/19 11:27:18;;;;;;;;;22.50;22.50;;;;;;;;5014272;28;45326;-75
2023/01/19 11:29:49;;;;;;;;;26.75;22.00;;;;;;;;5012933;28;45534;-75
2023/01/19 11:32:25;;;;;;;;;25.25;22.50;;;;;;;;5015325;28;45303;-75
2023/01/19 11:34:51;;;;;;;;;23.75;22.50;;;;;;;;5011561;28;45345;-76
2023/01/19 11:37:19;;;;;;;;;28.00;21.00;;;;;;;;5014239;28;45151;-75
2023/01/19 11:39:51;;;;;;;;;31.25;23.00;;;;;;;;5014240;28;46405;-75
2023/01/19 11:42:17;;;;;;;;;30.50;24.75;;;;;;;;5016386;28;45162;-76
2023/01/19 11:44:50;;;;;;;;;23.00;21.50;;;;;;;;5015650;28;45468;-75
2023/01/19 11:47:45;;;;;;;;;30.00;20.75;;;;;;;;5012948;28;45287;-76
2023/01/19 11:50:24;;;;;;;;;30.50;25.75;;;;;;;;5003175;28;45708;-75
2023/01/19 11:53:05;;;;;;;;;25.25;23.25;;;;;;;;5018443;28;45608;-75
2023/01/19 11:55:45;;;;;;;;;24.00;23.50;;;;;;;;5006169;28;45395;-75
2023/01/19 11:58:15;;;;;;;;;28.00;24.00;;;;;;;;5017828;28;46144;-75
2023/01/19 12:00:46;;;;;;;;;29.75;25.00;;;;;;;;5005758;28;46879;-75
2023/01/19 12:03:17;;;;;;;;;26.25;24.25;;;;;;;;5010426;28;45327;-75
2023/01/19 12:05:45;;;;;;;;;25.75;20.75;;;;;;;;5009700;28;45320;-75
2023/01/19 12:08:14;;;;;;;;;32.00;23.25;;;;;;;;5009176;28;47005;-75
2023/01/19 12:10:42;;;;;;;;;21.00;20.50;;;;;;;;5006454;28;45340;-76
2023/01/19 12:13:17;;;;;;;;;23.50;20.25;;;;;;;;5011735;28;45301;-76
2023/01/19 12:15:43;;;;;;;;;19.00;18.75;;;;;;;;5010886;28;46774;-74
2023/01/19 12:18:18;;;;;;;;;22.25;18.25;;;;;;;;5012623;28;45447;-76
2023/01/19 12:20:46;;;;;;;;;23.75;16.75;;;;;;;;5010665;28;45331;-75
2023/01/19 12:23:24;;;;;;;;;18.75;17.25;;;;;;;;5013142;28;46075;-75
2023/01/19 12:25:50;;;;;;;;;17.50;17.25;;;;;;;;5011459;28;45402;-75
2023/01/19 12:28:16;;;;;;;;;20.00;17.25;;;;;;;;5014128;28;46008;-75
2023/01/19 12:30:42;;;;;;;;;19.50;19.50;;;;;;;;5011335;28;45629;-75
2023/01/19 12:33:19;;;;;;;;;28.25;19.00;;;;;;;;5015507;28;45293;-76
2023/01/19 12:35:59;;;;;;;;;35.75;30.75;;;;;;;;5011472;28;45411;-76
2023/01/19 12:38:43;;;;;;;;;26.00;21.50;;;;;;;;5018438;28;45668;-75
2023/01/19 12:41:17;;;;;;;;;18.00;16.50;;;;;;;;5010713;28;46707;-75
2023/01/19 12:43:42;;;;;;;;;23.25;21.00;;;;;;;;5007021;28;45272;-77
2023/01/19 12:46:18;;;;;;;;;25.00;20.50;;;;;;;;5015204;28;45292;-76
2023/01/19 12:48:43;;;;;;;;;21.50;17.25;;;;;;;;5014269;28;46271;-76
2023/01/19 12:51:20;;;;;;;;;24.50;19.00;;;;;;;;5009035;28;46116;-76
2023/01/19 12:53:53;;;;;;;;;21.50;17.00;;;;;;;;5022734;28;45227;-74
2023/01/19 12:56:25;;;;;;;;;19.25;17.00;;;;;;;;5019526;28;45347;-74
2023/01/19 12:58:50;;;;;;;;;18.00;15.00;;;;;;;;5017826;28;45398;-75
2023/01/19 13:01:17;;;;;;;;;21.50;20.25;;;;;;;;5001850;28;46409;-75
2023/01/19 13:04:01;;;;;;;;;22.75;21.25;;;;;;;;5011055;28;45709;-74
2023/01/19 13:06:56;;;;;;;;;19.75;16.50;;;;;;;;5003403;28;45343;-75
2023/01/19 13:09:28;;;;;;;;;17.25;16.25;;;;;;;;5003299;28;45449;-74
2023/01/19 13:12:09;;;;;;;;;21.75;19.50;;;;;;;;5003797;28;45623;-75
2023/01/19 13:14:35;;;;;;;;;24.00;17.50;;;;;;;;5001122;28;45362;-76
2023/01/19 13:17:02;;;;;;;;;21.00;19.00;;;;;;;;5011017;28;45182;-77
2023/01/19 13:19:33;;;;;;;;;13.75;13.00;;;;;;;;5016223;28;45552;-76
2023/01/19 13:22:19;;;;;;;;;21.00;20.00;;;;;;;;5008260;28;45429;-75
2023/01/19 13:25:03;;;;;;;;;20.00;20.00;;;;;;;;5007110;28;45547;-75
2023/01/19 13:27:29;;;;;;;;;23.75;19.75;;;;;;;;5010302;28;45177;-75
2023/01/19 13:29:54;;;;;;;;;26.75;21.25;;;;;;;;5010624;28;45285;-75
2023/01/19 13:32:23;;;;;;;;;23.75;22.00;;;;;;;;5013251;28;47784;-75
2023/01/19 13:34:56;;;;;;;;;20.00;12.50;;;;;;;;5013884;28;45379;-74
2023/01/19 13:37:22;;;;;;;;;24.75;21.00;;;;;;;;5012447;28;45260;-75
2023/01/19 13:39:48;;;;;;;;;29.75;25.25;;;;;;;;5014953;28;45526;-75
2023/01/19 13:42:27;;;;;;;;;29.50;23.25;;;;;;;;5013224;28;45302;-74
2023/01/19 13:44:53;;;;;;;;;30.75;25.50;;;;;;;;5011738;28;45413;-74
2023/01/19 13:47:21;;;;;;;;;25.50;24.00;;;;;;;;5014603;28;45446;-75
2023/01/19 13:49:49;;;;;;;;;29.25;21.75;;;;;;;;5003832;28;45537;-75
2023/01/19 13:52:16;;;;;;;;;30.00;24.00;;;;;;;;5000915;28;45258;-75
2023/01/19 13:54:48;;;;;;;;;30.25;24.00;;;;;;;;5007689;28;45285;-76
2023/01/19 13:57:23;;;;;;;;;29.25;23.25;;;;;;;;5003620;28;45343;-75
2023/01/19 14:00:07;;;;;;;;;28.00;23.50;;;;;;;;5003618;28;45886;-75
2023/01/19 14:02:32;;;;;;;;;25.00;21.00;;;;;;;;5016103;28;45352;-75
2023/01/19 14:05:10;;;;;;;;;22.00;21.00;;;;;;;;5009385;28;45466;-76
2023/01/19 14:07:36;;;;;;;;;22.00;16.75;;;;;;;;5019466;28;45409;-74
2023/01/19 14:10:02;;;;;;;;;23.50;18.00;;;;;;;;5010433;28;45470;-75
2023/01/19 14:12:28;;;;;;;;;16.25;13.50;;;;;;;;5006610;28;46278;-75
2023/01/19 14:14:53;;;;;;;;;20.50;16.50;;;;;;;;5010160;28;45431;-75
2023/01/19 14:17:26;;;;;;;;;26.00;21.75;;;;;;;;5017872;28;45174;-77
2023/01/19 14:19:55;;;;;;;;;23.25;17.25;;;;;;;;5014145;28;45457;-76
2023/01/19 14:22:35;;;;;;;;;28.75;23.00;;;;;;;;5011325;28;45161;-76
2023/01/19 14:25:19;;;;;;;;;25.25;21.00;;;;;;;;5010168;28;45330;-75
2023/01/19 14:27:44;;;;;;;;;22.00;18.25;;;;;;;;5012737;28;45284;-76
2023/01/19 14:30:20;;;;;;;;;22.50;19.00;;;;;;;;5014979;28;45339;-75
2023/01/19 14:32:46;;;;;;;;;24.50;20.00;;;;;;;;5019587;28;45556;-74